sensor_id;sensor_type;location;lat;lon;timestamp;pressure;altitude;pressure_sealevel;temperature;humidity
52291;BME280;39663;45.432;28.050;2024-02-15T00:00:19;101715.69;;;10.51;40.64
52291;BME280;39663;45.432;28.050;2024-02-15T00:00:52;101721.26;;;10.53;39.95
52291;BME280;39663;45.432;28.050;2024-02-15T00:01:23;101717.90;;;9.85;39.03
52291;BME280;39663;45.432;28.050;2024-02-15T00:01:55;101715.78;;;10.37;40.03
52291;BME280;39663;45.432;28.050;2024-02-15T00:02:26;101717.98;;;10.72;40.73
52291;BME280;39663;45.432;28.050;2024-02-15T00:02:58;101718.67;;;10.92;40.11
52291;BME280;39663;45.432;28.050;2024-02-15T00:03:29;101715.64;;;10.74;40.23
52291;BME280;39663;45.432;28.050;2024-02-15T00:04:01;101716.60;;;10.73;38.47
52291;BME280;39663;45.432;28.050;2024-02-15T00:04:32;101717.90;;;10.97;39.62
52291;BME280;39663;45.432;28.050;2024-02-15T00:05:05;101712.91;;;10.32;40.61
52291;BME280;39663;45.432;28.050;2024-02-15T00:05:37;101710.00;;;10.74;40.37
52291;BME280;39663;45.432;28.050;2024-02-15T00:06:08;101719.87;;;11.04;40.47
52291;BME280;39663;45.432;28.050;2024-02-15T00:06:39;101720.51;;;11.16;40.52
52291;BME280;39663;45.432;28.050;2024-02-15T00:07:11;101722.23;;;10.49;37.32
52291;BME280;39663;45.432;28.050;2024-02-15T00:07:43;101723.26;;;11.10;41.56
52291;BME280;39663;45.432;28.050;2024-02-15T00:08:15;101720.39;;;10.94;39.07
52291;BME280;39663;45.432;28.050;2024-02-15T00:08:46;101723.12;;;11.48;39.88
52291;BME280;39663;45.432;28.050;2024-02-15T00:09:18;101717.89;;;10.74;40.40
52291;BME280;39663;45.432;28.050;2024-02-15T00:09:49;101721.65;;;10.28;41.24
52291;BME280;39663;45.432;28.050;2024-02-15T00:10:21;101722.69;;;10.66;39.93
52291;BME280;39663;45.432;28.050;2024-02-15T00:10:53;101719.99;;;10.41;41.61
52291;BME280;39663;45.432;28.050;2024-02-15T00:11:24;101735.94;;;10.82;41.11
52291;BME280;39663;45.432;28.050;2024-02-15T00:11:56;101725.89;;;11.13;41.40
52291;BME280;39663;45.432;28.050;2024-02-15T00:12:28;101731.94;;;10.70;38.74
52291;BME280;39663;45.432;28.050;2024-02-15T00:12:59;101717.89;;;10.30;41.00
52291;BME280;39663;45.432;28.050;2024-02-15T00:13:31;101723.74;;;10.73;38.95
52291;BME280;39663;45.432;28.050;2024-02-15T00:14:02;101727.63;;;10.54;38.55
52291;BME280;39663;45.432;28.050;2024-02-15T00:14:34;101723.87;;;10.55;39.86
52291;BME280;39663;45.432;28.050;2024-02-15T00:15:06;101723.55;;;10.36;37.94
52291;BME280;39663;45.432;28.050;2024-02-15T00:15:38;101722.73;;;10.26;41.37
52291;BME280;39663;45.432;28.050;2024-02-15T00:16:13;101715.39;;;10.59;40.95
52291;BME280;39663;45.432;28.050;2024-02-15T00:16:45;101713.26;;;10.78;40.39
52291;BME280;39663;45.432;28.050;2024-02-15T00:17:17;101716.23;;;10.48;36.41
52291;BME280;39663;45.432;28.050;2024-02-15T00:17:48;101714.65;;;10.28;40.87
52291;BME280;39663;45.432;28.050;2024-02-15T00:18:20;101713.73;;;10.18;38.14
52291;BME280;39663;45.432;28.050;2024-02-15T00:18:52;101716.21;;;10.08;41.11
52291;BME280;39663;45.432;28.050;2024-02-15T00:19:23;101714.79;;;10.11;41.56
52291;BME280;39663;45.432;28.050;2024-02-15T00:19:55;101711.79;;;10.63;41.81
52291;BME280;39663;45.432;28.050;2024-02-15T00:20:27;101703.83;;;10.68;37.88
52291;BME280;39663;45.432;28.050;2024-02-15T00:20:58;101713.29;;;10.38;38.31
52291;BME280;39663;45.432;28.050;2024-02-15T00:21:30;101718.04;;;10.56;39.73
52291;BME280;39663;45.432;28.050;2024-02-15T00:22:01;101708.26;;;10.01;40.77
52291;BME280;39663;45.432;28.050;2024-02-15T00:22:33;101708.80;;;10.28;42.10
52291;BME280;39663;45.432;28.050;2024-02-15T00:23:04;101706.90;;;10.29;41.58
52291;BME280;39663;45.432;28.050;2024-02-15T00:23:35;101714.49;;;9.78;37.92
52291;BME280;39663;45.432;28.050;2024-02-15T00:24:07;101712.30;;;9.86;42.78
52291;BME280;39663;45.432;28.050;2024-02-15T00:24:38;101717.70;;;10.34;41.68
52291;BME280;39663;45.432;28.050;2024-02-15T00:25:10;101719.50;;;9.93;41.83
52291;BME280;39663;45.432;28.050;2024-02-15T00:25:42;101706.33;;;9.94;40.53
52291;BME280;39663;45.432;28.050;2024-02-15T00:26:13;101710.62;;;10.35;41.78
52291;BME280;39663;45.432;28.050;2024-02-15T00:26:44;101709.33;;;10.51;41.17
52291;BME280;39663;45.432;28.050;2024-02-15T00:27:16;101719.63;;;10.44;41.49
52291;BME280;39663;45.432;28.050;2024-02-15T00:27:48;101718.01;;;10.75;41.81
52291;BME280;39663;45.432;28.050;2024-02-15T00:28:19;101714.86;;;10.66;40.15
52291;BME280;39663;45.432;28.050;2024-02-15T00:28:51;101712.91;;;10.74;41.44
52291;BME280;39663;45.432;28.050;2024-02-15T00:29:22;101711.25;;;10.70;41.51
52291;BME280;39663;45.432;28.050;2024-02-15T00:29:54;101711.89;;;10.65;41.70
52291;BME280;39663;45.432;28.050;2024-02-15T00:30:25;101718.32;;;10.30;38.25
52291;BME280;39663;45.432;28.050;2024-02-15T00:30:57;101712.61;;;10.58;41.56
52291;BME280;39663;45.432;28.050;2024-02-15T00:31:28;101709.25;;;10.85;41.17
52291;BME280;39663;45.432;28.050;2024-02-15T00:32:00;101716.42;;;11.12;40.45
52291;BME280;39663;45.432;28.050;2024-02-15T00:32:32;101708.71;;;10.81;38.46
52291;BME280;39663;45.432;28.050;2024-02-15T00:33:04;101713.83;;;10.51;37.11
52291;BME280;39663;45.432;28.050;2024-02-15T00:33:35;101722.42;;;10.41;41.68
52291;BME280;39663;45.432;28.050;2024-02-15T00:34:07;101718.39;;;10.62;38.36
52291;BME280;39663;45.432;28.050;2024-02-15T00:34:38;101709.89;;;9.46;38.25
52291;BME280;39663;45.432;28.050;2024-02-15T00:35:10;101731.22;;;9.56;41.93
52291;BME280;39663;45.432;28.050;2024-02-15T00:35:42;101719.48;;;9.67;40.64
52291;BME280;39663;45.432;28.050;2024-02-15T00:36:14;101713.94;;;8.74;39.16
52291;BME280;39663;45.432;28.050;2024-02-15T00:36:45;101727.93;;;9.38;42.13
52291;BME280;39663;45.432;28.050;2024-02-15T00:37:17;101718.29;;;8.99;41.93
52291;BME280;39663;45.432;28.050;2024-02-15T00:37:48;101722.31;;;9.80;42.88
52291;BME280;39663;45.432;28.050;2024-02-15T00:38:20;101719.21;;;9.74;40.59
52291;BME280;39663;45.432;28.050;2024-02-15T00:38:51;101719.64;;;10.10;41.33
52291;BME280;39663;45.432;28.050;2024-02-15T00:39:22;101709.81;;;10.24;38.52
52291;BME280;39663;45.432;28.050;2024-02-15T00:39:54;101714.43;;;9.98;40.77
52291;BME280;39663;45.432;28.050;2024-02-15T00:40:26;101714.27;;;10.39;40.87
52291;BME280;39663;45.432;28.050;2024-02-15T00:40:57;101710.22;;;9.74;41.07
52291;BME280;39663;45.432;28.050;2024-02-15T00:41:29;101719.18;;;9.95;42.32
52291;BME280;39663;45.432;28.050;2024-02-15T00:42:00;101711.11;;;10.02;39.65
52291;BME280;39663;45.432;28.050;2024-02-15T00:42:32;101715.45;;;10.00;41.20
52291;BME280;39663;45.432;28.050;2024-02-15T00:43:03;101715.91;;;10.28;42.31
52291;BME280;39663;45.432;28.050;2024-02-15T00:43:35;101710.70;;;10.25;40.62
52291;BME280;39663;45.432;28.050;2024-02-15T00:44:07;101719.46;;;10.72;41.54
52291;BME280;39663;45.432;28.050;2024-02-15T00:44:39;101714.54;;;10.60;42.25
52291;BME280;39663;45.432;28.050;2024-02-15T00:45:11;101717.48;;;9.81;37.39
52291;BME280;39663;45.432;28.050;2024-02-15T00:45:42;101716.86;;;9.87;39.33
52291;BME280;39663;45.432;28.050;2024-02-15T00:46:15;101712.21;;;10.46;41.71
52291;BME280;39663;45.432;28.050;2024-02-15T00:46:47;101712.62;;;10.74;37.93
52291;BME280;39663;45.432;28.050;2024-02-15T00:47:18;101717.09;;;10.80;41.84
52291;BME280;39663;45.432;28.050;2024-02-15T00:47:50;101714.63;;;10.48;39.54
52291;BME280;39663;45.432;28.050;2024-02-15T00:48:21;101714.80;;;10.68;37.85
52291;BME280;39663;45.432;28.050;2024-02-15T00:48:52;101711.40;;;10.49;39.63
52291;BME280;39663;45.432;28.050;2024-02-15T00:49:24;101712.85;;;11.12;40.79
52291;BME280;39663;45.432;28.050;2024-02-15T00:49:56;101711.98;;;10.77;38.53
52291;BME280;39663;45.432;28.050;2024-02-15T00:50:28;101722.73;;;10.98;38.12
52291;BME280;39663;45.432;28.050;2024-02-15T00:50:59;101714.99;;;10.40;39.18
52291;BME280;39663;45.432;28.050;2024-02-15T00:51:31;101714.61;;;10.90;40.45
52291;BME280;39663;45.432;28.050;2024-02-15T00:52:02;101708.53;;;11.14;40.43
52291;BME280;39663;45.432;28.050;2024-02-15T00:52:34;101719.12;;;11.58;39.87
52291;BME280;39663;45.432;28.050;2024-02-15T00:53:06;101702.62;;;11.28;39.85
52291;BME280;39663;45.432;28.050;2024-02-15T00:53:37;101720.86;;;10.70;37.23
52291;BME280;39663;45.432;28.050;2024-02-15T00:54:09;101713.19;;;10.94;36.83
52291;BME280;39663;45.432;28.050;2024-02-15T00:54:40;101709.34;;;10.70;40.79
52291;BME280;39663;45.432;28.050;2024-02-15T00:55:12;101716.98;;;9.71;39.88
52291;BME280;39663;45.432;28.050;2024-02-15T00:55:43;101722.90;;;10.37;41.55
52291;BME280;39663;45.432;28.050;2024-02-15T00:56:15;101720.71;;;9.78;40.20
52291;BME280;39663;45.432;28.050;2024-02-15T00:56:46;101719.94;;;9.89;39.02
52291;BME280;39663;45.432;28.050;2024-02-15T00:57:18;101718.09;;;10.30;40.73
52291;BME280;39663;45.432;28.050;2024-02-15T00:57:49;101722.79;;;10.34;41.20
52291;BME280;39663;45.432;28.050;2024-02-15T00:58:20;101717.73;;;10.75;40.42
52291;BME280;39663;45.432;28.050;2024-02-15T00:58:52;101714.41;;;10.97;39.79
52291;BME280;39663;45.432;28.050;2024-02-15T00:59:23;101722.06;;;10.06;38.10
52291;BME280;39663;45.432;28.050;2024-02-15T00:59:55;101712.73;;;9.75;41.76
52291;BME280;39663;45.432;28.050;2024-02-15T01:00:26;101713.53;;;10.72;40.98
52291;BME280;39663;45.432;28.050;2024-02-15T01:00:57;101711.19;;;10.72;38.32
52291;BME280;39663;45.432;28.050;2024-02-15T01:01:29;101719.15;;;11.03;39.80
52291;BME280;39663;45.432;28.050;2024-02-15T01:02:00;101715.37;;;10.65;40.71
52291;BME280;39663;45.432;28.050;2024-02-15T01:02:32;101720.01;;;10.56;40.03
52291;BME280;39663;45.432;28.050;2024-02-15T01:03:03;101714.29;;;10.99;39.74
52291;BME280;39663;45.432;28.050;2024-02-15T01:03:35;101714.99;;;10.64;40.54
52291;BME280;39663;45.432;28.050;2024-02-15T01:04:07;101712.30;;;10.50;39.97
52291;BME280;39663;45.432;28.050;2024-02-15T01:04:39;101710.69;;;11.10;39.73
52291;BME280;39663;45.432;28.050;2024-02-15T01:05:10;101709.04;;;11.13;38.60
52291;BME280;39663;45.432;28.050;2024-02-15T01:05:42;101705.39;;;11.40;40.08
52291;BME280;39663;45.432;28.050;2024-02-15T01:06:13;101711.43;;;11.15;40.33
52291;BME280;39663;45.432;28.050;2024-02-15T01:06:45;101705.36;;;10.63;35.71
52291;BME280;39663;45.432;28.050;2024-02-15T01:07:16;101705.97;;;10.83;40.20
52291;BME280;39663;45.432;28.050;2024-02-15T01:07:47;101698.18;;;11.11;40.57
52291;BME280;39663;45.432;28.050;2024-02-15T01:08:19;101713.95;;;10.86;39.76
52291;BME280;39663;45.432;28.050;2024-02-15T01:08:50;101711.21;;;10.32;42.05
52291;BME280;39663;45.432;28.050;2024-02-15T01:09:22;101709.56;;;9.91;40.84
52291;BME280;39663;45.432;28.050;2024-02-15T01:09:54;101708.03;;;10.18;42.13
52291;BME280;39663;45.432;28.050;2024-02-15T01:10:25;101702.43;;;10.68;42.11
52291;BME280;39663;45.432;28.050;2024-02-15T01:10:56;101704.66;;;10.61;41.43
52291;BME280;39663;45.432;28.050;2024-02-15T01:11:28;101714.80;;;10.92;40.50
52291;BME280;39663;45.432;28.050;2024-02-15T01:12:00;101707.80;;;9.96;40.39
52291;BME280;39663;45.432;28.050;2024-02-15T01:12:31;101698.56;;;10.69;42.37
52291;BME280;39663;45.432;28.050;2024-02-15T01:13:03;101698.65;;;10.82;39.36
52291;BME280;39663;45.432;28.050;2024-02-15T01:13:34;101702.08;;;10.27;36.72
52291;BME280;39663;45.432;28.050;2024-02-15T01:14:05;101710.47;;;10.27;43.30
52291;BME280;39663;45.432;28.050;2024-02-15T01:14:37;101700.24;;;9.87;38.76
52291;BME280;39663;45.432;28.050;2024-02-15T01:15:09;101710.29;;;10.32;43.82
52291;BME280;39663;45.432;28.050;2024-02-15T01:15:40;101706.43;;;9.90;40.91
52291;BME280;39663;45.432;28.050;2024-02-15T01:16:12;101701.22;;;9.89;39.22
52291;BME280;39663;45.432;28.050;2024-02-15T01:16:44;101701.78;;;10.27;41.99
52291;BME280;39663;45.432;28.050;2024-02-15T01:17:15;101698.82;;;10.80;42.20
52291;BME280;39663;45.432;28.050;2024-02-15T01:17:46;101699.29;;;11.05;41.42
52291;BME280;39663;45.432;28.050;2024-02-15T01:18:18;101695.93;;;10.84;41.16
52291;BME280;39663;45.432;28.050;2024-02-15T01:18:49;101696.16;;;10.25;42.25
52291;BME280;39663;45.432;28.050;2024-02-15T01:19:21;101690.79;;;10.75;40.68
52291;BME280;39663;45.432;28.050;2024-02-15T01:19:52;101688.72;;;10.36;42.14
52291;BME280;39663;45.432;28.050;2024-02-15T01:20:23;101684.62;;;10.71;42.44
52291;BME280;39663;45.432;28.050;2024-02-15T01:20:55;101685.78;;;10.92;40.64
52291;BME280;39663;45.432;28.050;2024-02-15T01:21:26;101701.28;;;11.01;38.27
52291;BME280;39663;45.432;28.050;2024-02-15T01:21:58;101687.66;;;10.55;41.27
52291;BME280;39663;45.432;28.050;2024-02-15T01:22:29;101687.72;;;10.39;42.38
52291;BME280;39663;45.432;28.050;2024-02-15T01:23:01;101695.86;;;10.58;43.15
52291;BME280;39663;45.432;28.050;2024-02-15T01:23:32;101695.85;;;10.75;41.52
52291;BME280;39663;45.432;28.050;2024-02-15T01:24:04;101687.77;;;10.71;40.43
52291;BME280;39663;45.432;28.050;2024-02-15T01:24:36;101689.41;;;10.56;42.12
52291;BME280;39663;45.432;28.050;2024-02-15T01:25:08;101684.10;;;10.73;38.94
52291;BME280;39663;45.432;28.050;2024-02-15T01:25:39;101689.62;;;10.81;42.36
52291;BME280;39663;45.432;28.050;2024-02-15T01:26:11;101687.91;;;10.67;42.01
52291;BME280;39663;45.432;28.050;2024-02-15T01:26:42;101687.41;;;9.56;39.35
52291;BME280;39663;45.432;28.050;2024-02-15T01:27:14;101688.60;;;10.02;43.65
52291;BME280;39663;45.432;28.050;2024-02-15T01:27:45;101686.28;;;10.11;43.16
52291;BME280;39663;45.432;28.050;2024-02-15T01:28:16;101688.29;;;10.50;42.45
52291;BME280;39663;45.432;28.050;2024-02-15T01:28:48;101695.38;;;10.10;40.36
52291;BME280;39663;45.432;28.050;2024-02-15T01:29:19;101692.60;;;10.54;42.81
52291;BME280;39663;45.432;28.050;2024-02-15T01:29:51;101692.43;;;10.44;41.58
52291;BME280;39663;45.432;28.050;2024-02-15T01:30:22;101691.47;;;10.52;41.52
52291;BME280;39663;45.432;28.050;2024-02-15T01:30:53;101688.60;;;9.69;38.69
52291;BME280;39663;45.432;28.050;2024-02-15T01:31:25;101689.06;;;10.33;42.64
52291;BME280;39663;45.432;28.050;2024-02-15T01:31:56;101694.67;;;9.75;42.92
52291;BME280;39663;45.432;28.050;2024-02-15T01:32:27;101699.96;;;9.93;43.28
52291;BME280;39663;45.432;28.050;2024-02-15T01:32:59;101690.64;;;9.93;39.36
52291;BME280;39663;45.432;28.050;2024-02-15T01:33:30;101694.04;;;9.63;41.64
52291;BME280;39663;45.432;28.050;2024-02-15T01:34:01;101688.52;;;10.03;41.87
52291;BME280;39663;45.432;28.050;2024-02-15T01:34:33;101694.30;;;10.47;42.05
52291;BME280;39663;45.432;28.050;2024-02-15T01:35:05;101691.18;;;10.52;43.01
52291;BME280;39663;45.432;28.050;2024-02-15T01:35:37;101689.06;;;10.72;40.34
52291;BME280;39663;45.432;28.050;2024-02-15T01:36:13;101698.10;;;10.16;42.77
52291;BME280;39663;45.432;28.050;2024-02-15T01:36:46;101692.02;;;9.16;38.52
52291;BME280;39663;45.432;28.050;2024-02-15T01:37:18;101691.87;;;9.49;43.21
52291;BME280;39663;45.432;28.050;2024-02-15T01:37:50;101698.84;;;10.10;43.06
52291;BME280;39663;45.432;28.050;2024-02-15T01:38:21;101694.12;;;9.89;42.29
52291;BME280;39663;45.432;28.050;2024-02-15T01:38:53;101695.98;;;9.82;43.62
52291;BME280;39663;45.432;28.050;2024-02-15T01:39:24;101692.98;;;9.11;42.80
52291;BME280;39663;45.432;28.050;2024-02-15T01:39:56;101691.22;;;9.86;44.38
52291;BME280;39663;45.432;28.050;2024-02-15T01:40:27;101697.15;;;9.89;39.24
52291;BME280;39663;45.432;28.050;2024-02-15T01:40:59;101695.53;;;10.20;42.82
52291;BME280;39663;45.432;28.050;2024-02-15T01:41:30;101692.55;;;9.02;40.29
52291;BME280;39663;45.432;28.050;2024-02-15T01:42:02;101698.87;;;9.67;43.82
52291;BME280;39663;45.432;28.050;2024-02-15T01:42:33;101694.49;;;9.24;44.95
52291;BME280;39663;45.432;28.050;2024-02-15T01:43:04;101695.04;;;9.22;39.49
52291;BME280;39663;45.432;28.050;2024-02-15T01:43:36;101698.00;;;9.59;42.76
52291;BME280;39663;45.432;28.050;2024-02-15T01:44:08;101695.78;;;9.87;44.63
52291;BME280;39663;45.432;28.050;2024-02-15T01:44:39;101693.27;;;9.94;43.79
52291;BME280;39663;45.432;28.050;2024-02-15T01:45:11;101691.44;;;9.69;43.93
52291;BME280;39663;45.432;28.050;2024-02-15T01:45:42;101696.22;;;10.17;45.12
52291;BME280;39663;45.432;28.050;2024-02-15T01:46:14;101696.59;;;10.05;40.54
52291;BME280;39663;45.432;28.050;2024-02-15T01:46:47;101691.65;;;10.06;40.84
52291;BME280;39663;45.432;28.050;2024-02-15T01:47:20;101686.17;;;8.80;44.00
52291;BME280;39663;45.432;28.050;2024-02-15T01:47:52;101698.49;;;9.66;42.38
52291;BME280;39663;45.432;28.050;2024-02-15T01:48:23;101692.09;;;8.77;41.30
52291;BME280;39663;45.432;28.050;2024-02-15T01:48:55;101692.32;;;9.43;44.52
52291;BME280;39663;45.432;28.050;2024-02-15T01:49:28;101681.59;;;9.29;39.84
52291;BME280;39663;45.432;28.050;2024-02-15T01:49:59;101692.80;;;10.12;44.04
52291;BME280;39663;45.432;28.050;2024-02-15T01:50:31;101686.28;;;9.34;42.53
52291;BME280;39663;45.432;28.050;2024-02-15T01:51:05;101694.55;;;9.00;40.59
52291;BME280;39663;45.432;28.050;2024-02-15T01:51:38;101688.43;;;9.83;43.91
52291;BME280;39663;45.432;28.050;2024-02-15T01:52:12;101696.25;;;9.92;43.40
52291;BME280;39663;45.432;28.050;2024-02-15T01:52:44;101693.86;;;9.15;41.74
52291;BME280;39663;45.432;28.050;2024-02-15T01:53:18;101705.82;;;9.91;44.83
52291;BME280;39663;45.432;28.050;2024-02-15T01:53:50;101690.15;;;9.21;40.47
52291;BME280;39663;45.432;28.050;2024-02-15T01:54:21;101692.59;;;9.61;44.10
52291;BME280;39663;45.432;28.050;2024-02-15T01:54:53;101694.31;;;10.01;44.00
52291;BME280;39663;45.432;28.050;2024-02-15T01:55:25;101687.74;;;10.08;42.93
52291;BME280;39663;45.432;28.050;2024-02-15T01:55:57;101693.84;;;10.36;42.81
52291;BME280;39663;45.432;28.050;2024-02-15T01:56:28;101698.81;;;10.40;43.14
52291;BME280;39663;45.432;28.050;2024-02-15T01:57:00;101699.45;;;10.29;43.02
52291;BME280;39663;45.432;28.050;2024-02-15T01:57:32;101689.06;;;9.40;42.75
52291;BME280;39663;45.432;28.050;2024-02-15T01:58:04;101695.61;;;8.61;42.87
52291;BME280;39663;45.432;28.050;2024-02-15T01:58:36;101696.77;;;8.97;42.01
52291;BME280;39663;45.432;28.050;2024-02-15T02:01:35;101697.45;;;8.93;41.71
52291;BME280;39663;45.432;28.050;2024-02-15T02:02:09;101697.75;;;9.05;45.11
52291;BME280;39663;45.432;28.050;2024-02-15T02:02:45;101703.27;;;8.87;41.54
52291;BME280;39663;45.432;28.050;2024-02-15T02:03:16;101701.25;;;9.04;43.64
52291;BME280;39663;45.432;28.050;2024-02-15T02:03:48;101702.29;;;9.54;45.11
52291;BME280;39663;45.432;28.050;2024-02-15T02:04:20;101705.84;;;9.80;43.56
52291;BME280;39663;45.432;28.050;2024-02-15T02:04:51;101703.07;;;9.96;42.18
52291;BME280;39663;45.432;28.050;2024-02-15T02:05:23;101696.31;;;10.30;41.43
52291;BME280;39663;45.432;28.050;2024-02-15T02:05:56;101700.94;;;9.47;42.40
52291;BME280;39663;45.432;28.050;2024-02-15T02:06:28;101702.02;;;9.60;40.65
52291;BME280;39663;45.432;28.050;2024-02-15T02:07:01;101697.31;;;8.47;45.23
52291;BME280;39663;45.432;28.050;2024-02-15T02:07:33;101698.08;;;8.86;39.89
52291;BME280;39663;45.432;28.050;2024-02-15T02:08:05;101701.69;;;9.40;44.69
52291;BME280;39663;45.432;28.050;2024-02-15T02:08:37;101707.83;;;9.83;44.18
52291;BME280;39663;45.432;28.050;2024-02-15T02:09:10;101701.66;;;9.89;43.48
52291;BME280;39663;45.432;28.050;2024-02-15T02:09:42;101704.47;;;10.21;43.77
52291;BME280;39663;45.432;28.050;2024-02-15T02:10:13;101707.61;;;10.48;43.59
52291;BME280;39663;45.432;28.050;2024-02-15T02:10:45;101701.14;;;9.97;41.38
52291;BME280;39663;45.432;28.050;2024-02-15T02:11:17;101704.04;;;10.41;43.12
52291;BME280;39663;45.432;28.050;2024-02-15T02:11:48;101705.73;;;9.55;42.23
52291;BME280;39663;45.432;28.050;2024-02-15T02:12:20;101706.23;;;10.08;43.43
52291;BME280;39663;45.432;28.050;2024-02-15T02:12:52;101701.30;;;10.13;42.25
52291;BME280;39663;45.432;28.050;2024-02-15T02:13:23;101703.23;;;10.24;38.79
52291;BME280;39663;45.432;28.050;2024-02-15T02:13:55;101700.60;;;9.82;41.28
52291;BME280;39663;45.432;28.050;2024-02-15T02:14:26;101699.73;;;9.78;39.18
52291;BME280;39663;45.432;28.050;2024-02-15T02:14:58;101698.86;;;9.45;42.71
52291;BME280;39663;45.432;28.050;2024-02-15T02:15:29;101699.28;;;9.74;42.54
52291;BME280;39663;45.432;28.050;2024-02-15T02:16:02;101702.46;;;9.87;42.29
52291;BME280;39663;45.432;28.050;2024-02-15T02:16:33;101701.97;;;10.46;42.35
52291;BME280;39663;45.432;28.050;2024-02-15T02:17:13;101705.43;;;9.97;41.88
52291;BME280;39663;45.432;28.050;2024-02-15T02:17:49;101698.33;;;10.03;40.67
52291;BME280;39663;45.432;28.050;2024-02-15T02:18:20;101696.14;;;8.89;40.59
52291;BME280;39663;45.432;28.050;2024-02-15T02:18:52;101700.84;;;9.42;42.08
52291;BME280;39663;45.432;28.050;2024-02-15T02:19:24;101702.43;;;9.99;43.64
52291;BME280;39663;45.432;28.050;2024-02-15T02:19:55;101702.66;;;10.20;42.48
52291;BME280;39663;45.432;28.050;2024-02-15T02:20:26;101694.42;;;10.01;42.06
52291;BME280;39663;45.432;28.050;2024-02-15T02:20:58;101701.85;;;10.11;41.69
52291;BME280;39663;45.432;28.050;2024-02-15T02:21:29;101699.44;;;10.28;41.14
52291;BME280;39663;45.432;28.050;2024-02-15T02:22:01;101702.68;;;10.00;43.36
52291;BME280;39663;45.432;28.050;2024-02-15T02:22:33;101696.53;;;10.17;41.13
52291;BME280;39663;45.432;28.050;2024-02-15T02:23:09;101698.40;;;10.47;42.28
52291;BME280;39663;45.432;28.050;2024-02-15T02:23:46;101704.61;;;10.49;40.76
52291;BME280;39663;45.432;28.050;2024-02-15T02:24:22;101695.76;;;10.64;43.13
52291;BME280;39663;45.432;28.050;2024-02-15T02:24:58;101697.59;;;10.71;41.08
52291;BME280;39663;45.432;28.050;2024-02-15T02:25:30;101697.71;;;10.03;38.82
52291;BME280;39663;45.432;28.050;2024-02-15T02:26:01;101702.75;;;10.19;41.87
52291;BME280;39663;45.432;28.050;2024-02-15T02:26:34;101701.86;;;10.15;42.01
52291;BME280;39663;45.432;28.050;2024-02-15T02:28:11;101706.38;;;11.11;47.98
52291;BME280;39663;45.432;28.050;2024-02-15T02:28:43;101707.94;;;11.19;45.50
52291;BME280;39663;45.432;28.050;2024-02-15T02:29:15;101709.06;;;11.58;45.16
52291;BME280;39663;45.432;28.050;2024-02-15T02:29:47;101709.41;;;11.62;45.62
52291;BME280;39663;45.432;28.050;2024-02-15T02:30:18;101706.96;;;11.68;45.81
52291;BME280;39663;45.432;28.050;2024-02-15T02:30:51;101712.07;;;11.83;45.68
52291;BME280;39663;45.432;28.050;2024-02-15T02:31:23;101704.62;;;12.20;45.66
52291;BME280;39663;45.432;28.050;2024-02-15T02:31:54;101704.71;;;12.37;45.52
52291;BME280;39663;45.432;28.050;2024-02-15T02:32:26;101703.94;;;12.55;44.84
52291;BME280;39663;45.432;28.050;2024-02-15T02:32:57;101703.46;;;12.51;44.64
52291;BME280;39663;45.432;28.050;2024-02-15T02:33:29;101708.55;;;12.41;44.02
52291;BME280;39663;45.432;28.050;2024-02-15T02:34:01;101707.87;;;12.56;43.68
52291;BME280;39663;45.432;28.050;2024-02-15T02:34:33;101706.71;;;12.68;43.36
52291;BME280;39663;45.432;28.050;2024-02-15T02:35:05;101702.91;;;12.85;43.10
52291;BME280;39663;45.432;28.050;2024-02-15T02:35:42;101709.75;;;12.92;43.06
52291;BME280;39663;45.432;28.050;2024-02-15T02:36:14;101706.75;;;12.99;43.05
52291;BME280;39663;45.432;28.050;2024-02-15T02:36:45;101705.31;;;13.15;42.90
52291;BME280;39663;45.432;28.050;2024-02-15T02:37:17;101710.44;;;13.11;42.80
52291;BME280;39663;45.432;28.050;2024-02-15T02:37:48;101704.73;;;13.18;42.40
52291;BME280;39663;45.432;28.050;2024-02-15T02:38:20;101711.90;;;13.42;42.40
52291;BME280;39663;45.432;28.050;2024-02-15T02:38:51;101711.53;;;13.60;42.13
52291;BME280;39663;45.432;28.050;2024-02-15T02:39:23;101709.60;;;13.65;42.07
52291;BME280;39663;45.432;28.050;2024-02-15T02:39:55;101706.09;;;13.58;42.12
52291;BME280;39663;45.432;28.050;2024-02-15T02:40:26;101710.47;;;13.62;42.07
52291;BME280;39663;45.432;28.050;2024-02-15T02:40:58;101711.55;;;13.93;41.94
52291;BME280;39663;45.432;28.050;2024-02-15T02:41:29;101712.00;;;13.57;42.01
52291;BME280;39663;45.432;28.050;2024-02-15T02:42:01;101712.40;;;14.04;41.98
52291;BME280;39663;45.432;28.050;2024-02-15T02:42:32;101714.14;;;13.70;41.78
52291;BME280;39663;45.432;28.050;2024-02-15T02:43:04;101712.21;;;13.96;41.70
52291;BME280;39663;45.432;28.050;2024-02-15T02:43:36;101712.18;;;13.85;41.70
52291;BME280;39663;45.432;28.050;2024-02-15T02:44:07;101712.55;;;13.90;41.02
52291;BME280;39663;45.432;28.050;2024-02-15T02:44:38;101713.26;;;14.12;41.33
52291;BME280;39663;45.432;28.050;2024-02-15T02:45:10;101717.32;;;14.04;41.23
52291;BME280;39663;45.432;28.050;2024-02-15T02:45:42;101710.21;;;14.11;41.29
52291;BME280;39663;45.432;28.050;2024-02-15T02:46:14;101715.79;;;14.31;41.15
52291;BME280;39663;45.432;28.050;2024-02-15T02:46:45;101716.01;;;14.17;41.11
52291;BME280;39663;45.432;28.050;2024-02-15T02:47:16;101712.18;;;14.24;41.00
52291;BME280;39663;45.432;28.050;2024-02-15T02:47:48;101714.52;;;14.29;40.98
52291;BME280;39663;45.432;28.050;2024-02-15T02:48:19;101719.81;;;14.35;40.63